Time;durP1;ratioP1;P1;durP2;ratioP2;P2;SDS_P1;SDS_P2;PMS_P1;PMS_P2;Temp;Humidity;BMP_temperature;BMP_pressure;BME280_temperature;BME280_humidity;BME280_pressure;Samples;Min_cycle;Max_cycle;Signal;HPM_P1;HPM_P2
2022/11/26 00:00:43;;;;;;;24.90;5.85;;;;;;;6.66;100.00;102590.13;5019652;28;20522;-62
2022/11/26 00:03:10;;;;;;;23.75;5.93;;;;;;;6.55;100.00;102597.88;5014483;28;20029;-64
2022/11/26 00:05:36;;;;;;;25.67;5.60;;;;;;;6.45;100.00;102591.66;5015129;28;20134;-63
2022/11/26 00:08:03;;;;;;;29.10;6.15;;;;;;;6.38;100.00;102595.94;5018978;28;20028;-64
2022/11/26 00:10:32;;;;;;;23.63;6.15;;;;;;;6.41;100.00;102597.72;4999057;28;20052;-63
2022/11/26 00:12:57;;;;;;;30.55;6.47;;;;;;;6.41;100.00;102600.34;5016140;28;20033;-63
2022/11/26 00:15:27;;;;;;;32.05;5.47;;;;;;;6.42;100.00;102597.72;5015760;28;20025;-60
2022/11/26 00:17:53;;;;;;;22.85;6.32;;;;;;;6.42;100.00;102600.34;5015858;28;20036;-64
2022/11/26 00:20:24;;;;;;;32.67;5.95;;;;;;;6.43;100.00;102595.97;5014572;28;20029;-63
2022/11/26 00:22:54;;;;;;;26.42;6.90;;;;;;;6.44;100.00;102602.97;4997242;28;20620;-64
2022/11/26 00:25:25;;;;;;;25.88;5.60;;;;;;;6.46;100.00;102601.25;4996280;28;20122;-63
2022/11/26 00:27:52;;;;;;;27.30;4.88;;;;;;;6.42;100.00;102602.94;4994210;28;20503;-64
2022/11/26 00:30:24;;;;;;;25.63;6.38;;;;;;;6.40;100.00;102616.91;4993612;28;20116;-62
2022/11/26 00:32:50;;;;;;;26.83;4.80;;;;;;;6.38;100.00;102616.00;5011650;28;20033;-63
2022/11/26 00:35:16;;;;;;;23.58;5.53;;;;;;;6.37;100.00;102606.38;5012389;28;20026;-63
2022/11/26 00:37:44;;;;;;;25.20;5.05;;;;;;;6.32;100.00;102615.06;5011915;28;20530;-62
2022/11/26 00:40:18;;;;;;;32.78;5.78;;;;;;;6.32;100.00;102617.69;5011163;28;20048;-64
2022/11/26 00:42:43;;;;;;;51.50;6.00;;;;;;;6.31;100.00;102615.03;4993838;28;20521;-62
2022/11/26 00:45:21;;;;;;;26.27;4.75;;;;;;;6.31;100.00;102618.56;5014408;28;20034;-65
2022/11/26 00:47:46;;;;;;;27.65;5.78;;;;;;;6.30;100.00;102621.16;5011500;28;20026;-62
2022/11/26 00:50:14;;;;;;;28.05;4.63;;;;;;;6.30;100.00;102618.53;5010297;28;20546;-64
2022/11/26 00:52:39;;;;;;;24.23;4.90;;;;;;;6.32;100.00;102615.06;5011175;28;20034;-63
2022/11/26 00:55:18;;;;;;;27.60;5.35;;;;;;;6.31;100.00;102602.84;5010660;28;20160;-63
2022/11/26 00:57:43;;;;;;;;;;;;;;;6.36;100.00;102607.25;4994339;28;20116;-64
2022/11/26 01:00:14;;;;;;;17.73;4.50;;;;;;;6.34;100.00;102614.19;4992437;28;20012;-63
2022/11/26 01:02:39;;;;;;;28.80;5.55;;;;;;;6.28;100.00;102612.38;5010555;28;20057;-63
2022/11/26 01:05:07;;;;;;;26.00;6.45;;;;;;;6.31;100.00;102610.69;5010041;28;20443;-63
2022/11/26 01:07:32;;;;;;;37.85;5.55;;;;;;;6.33;100.00;102618.56;5012639;28;20025;-64
2022/11/26 01:09:58;;;;;;;27.38;4.68;;;;;;;6.31;100.00;102620.28;5029864;28;20033;-64
2022/11/26 01:12:23;;;;;;;25.23;5.05;;;;;;;6.29;100.00;102616.78;5029222;28;20125;-61
2022/11/26 01:14:48;;;;;;;21.55;5.53;;;;;;;6.28;100.00;102623.75;5029599;28;20053;-63
2022/11/26 01:17:14;;;;;;;22.70;5.95;;;;;;;6.27;100.00;102629.84;5029920;28;20045;-62
2022/11/26 01:19:39;;;;;;;33.80;6.07;;;;;;;6.25;100.00;102635.91;5029671;28;20417;-62
2022/11/26 01:22:04;;;;;;;27.48;6.20;;;;;;;6.19;100.00;102642.84;5029295;28;20163;-63
2022/11/26 01:24:30;;;;;;;26.58;5.72;;;;;;;6.22;100.00;102644.59;5030068;28;20074;-62
2022/11/26 01:26:55;;;;;;;35.92;5.55;;;;;;;6.17;100.00;102641.06;5029903;28;20376;-64
2022/11/26 01:29:20;;;;;;;29.20;5.75;;;;;;;6.21;100.00;102650.72;5010361;28;20026;-64
2022/11/26 01:31:46;;;;;;;32.80;6.20;;;;;;;6.21;100.00;102650.72;5009723;28;20026;-59
2022/11/26 01:34:12;;;;;;;26.50;5.55;;;;;;;6.18;100.00;102659.38;5009080;28;20026;-64
2022/11/26 01:36:38;;;;;;;21.70;5.15;;;;;;;6.21;100.00;102661.19;5009801;28;20799;-62
2022/11/26 01:39:09;;;;;;;27.48;5.55;;;;;;;6.21;100.00;102661.19;5009209;28;20024;-63
2022/11/26 01:41:34;;;;;;;28.27;6.38;;;;;;;6.23;100.00;102651.59;5009851;28;20026;-65
2022/11/26 01:43:59;;;;;;;28.80;5.70;;;;;;;6.18;100.00;102655.91;5008546;28;20026;-63
2022/11/26 01:46:27;;;;;;;28.30;6.72;;;;;;;6.16;100.00;102653.25;5009779;28;20120;-63
2022/11/26 01:48:54;;;;;;;29.00;6.43;;;;;;;6.22;100.00;102655.06;4991485;28;20385;-64
2022/11/26 01:51:24;;;;;;;28.70;6.32;;;;;;;6.23;100.00;102651.59;5009053;28;20037;-62
2022/11/26 01:53:58;;;;;;;32.55;5.95;;;;;;;6.24;100.00;102661.22;5009301;28;20026;-63
2022/11/26 01:56:33;;;;;;;35.10;6.60;;;;;;;6.26;100.00;102664.72;5007310;28;20026;-63
2022/11/26 01:59:09;;;;;;;25.27;5.68;;;;;;;6.25;100.00;102657.75;5000040;28;20050;-63
2022/11/26 02:01:35;;;;;;;42.42;7.43;;;;;;;6.25;100.00;102662.97;5010417;28;20033;-62
2022/11/26 02:04:10;;;;;;;28.13;6.40;;;;;;;6.26;100.00;102653.38;5019334;28;20028;-63
2022/11/26 02:06:35;;;;;;;29.40;5.45;;;;;;;6.25;100.00;102660.34;4993563;28;20021;-64
2022/11/26 02:09:04;;;;;;;28.40;6.22;;;;;;;6.29;100.00;102653.44;4989719;28;20043;-62
2022/11/26 02:11:29;;;;;;;25.23;6.57;;;;;;;6.31;100.00;102651.69;5007905;28;20046;-63
2022/11/26 02:13:58;;;;;;;31.13;7.43;;;;;;;6.34;100.00;102650.84;5019420;28;20395;-60
2022/11/26 02:16:52;;;;;;;32.13;6.40;;;;;;;6.34;100.00;102656.09;4992725;28;20029;-63
2022/11/26 02:19:51;;;;;;;26.35;6.32;;;;;;;6.39;100.00;102654.41;4990694;28;20052;-58
2022/11/26 02:22:19;;;;;;;30.85;7.20;;;;;;;6.38;100.00;102658.78;5015890;28;20030;-63
2022/11/26 02:24:47;;;;;;;25.92;5.93;;;;;;;6.41;100.00;102657.94;5023189;28;20033;-64
2022/11/26 02:27:47;;;;;;;30.33;6.85;;;;;;;6.41;100.00;102660.56;4994063;28;20052;-64
2022/11/26 02:30:14;;;;;;;27.27;7.03;;;;;;;6.38;100.00;102661.38;5016444;28;20033;-61
2022/11/26 02:32:52;;;;;;;26.23;7.30;;;;;;;6.38;100.00;102653.53;5012482;28;20381;-61
2022/11/26 02:35:21;;;;;;;37.15;7.68;;;;;;;6.39;100.00;102662.28;5026845;28;20041;-59
2022/11/26 02:38:09;;;;;;;34.90;6.60;;;;;;;6.38;100.00;102664.00;4997808;28;20022;-63
2022/11/26 02:40:34;;;;;;;28.75;6.65;;;;;;;6.41;100.00;102665.81;4998111;28;20036;-63
2022/11/26 02:43:00;;;;;;;30.10;6.60;;;;;;;6.40;100.00;102672.78;5015544;28;20034;-63
2022/11/26 02:45:28;;;;;;;32.10;7.72;;;;;;;6.41;100.00;102671.03;5015153;28;20057;-62
2022/11/26 02:47:55;;;;;;;32.40;8.07;;;;;;;6.46;100.00;102679.81;5001778;28;20106;-63
2022/11/26 02:50:25;;;;;;;41.40;7.25;;;;;;;6.49;100.00;102679.88;5005896;28;20284;-63
2022/11/26 02:52:52;;;;;;;34.10;7.60;;;;;;;6.50;100.00;102679.00;5004664;28;20084;-60
2022/11/26 02:55:18;;;;;;;30.38;7.32;;;;;;;6.52;100.00;102679.91;5003104;28;20029;-60
2022/11/26 02:57:46;;;;;;;29.67;7.82;;;;;;;6.54;100.00;102686.03;4995294;28;20029;-64
2022/11/26 03:00:13;;;;;;;39.85;8.23;;;;;;;6.57;100.00;102693.94;5001283;28;20022;-64
2022/11/26 03:02:48;;;;;;;31.73;7.70;;;;;;;6.55;100.00;102682.56;5015572;28;20091;-61
2022/11/26 03:05:16;;;;;;;41.05;8.45;;;;;;;6.60;100.00;102685.25;4992275;28;20022;-63
2022/11/26 03:07:42;;;;;;;27.63;7.90;;;;;;;6.63;100.00;102685.28;5014433;28;20022;-63
2022/11/26 03:10:08;;;;;;;30.48;7.43;;;;;;;6.62;100.00;102682.66;5019576;28;20038;-60
2022/11/26 03:12:33;;;;;;;37.42;8.25;;;;;;;6.66;100.00;102679.22;5023727;28;20057;-64
2022/11/26 03:14:58;;;;;;;37.83;9.02;;;;;;;6.63;100.00;102687.91;5022650;28;20017;-63
2022/11/26 03:17:23;;;;;;;33.78;8.15;;;;;;;6.68;100.00;102682.69;5026409;28;20080;-57
2022/11/26 03:19:49;;;;;;;37.83;9.10;;;;;;;6.70;100.00;102675.75;5019511;28;20084;-64
2022/11/26 03:22:15;;;;;;;32.72;8.73;;;;;;;6.69;100.00;102681.88;5015352;28;20080;-61
2022/11/26 03:24:40;;;;;;;36.05;8.40;;;;;;;6.64;100.00;102687.03;5021023;28;20037;-64
2022/11/26 03:27:05;;;;;;;34.10;8.60;;;;;;;6.65;100.00;102686.19;5015778;28;20037;-63
2022/11/26 03:29:31;;;;;;;45.78;11.05;;;;;;;6.66;100.00;102687.06;5022437;28;20026;-61
2022/11/26 03:31:57;;;;;;;34.05;8.43;;;;;;;6.72;100.00;102695.00;5021111;28;20116;-64
2022/11/26 03:34:22;;;;;;;37.00;9.30;;;;;;;6.76;100.00;102688.03;5005616;28;20044;-64
2022/11/26 03:36:47;;;;;;;39.65;9.13;;;;;;;6.80;100.00;102690.72;5006885;28;20021;-59
2022/11/26 03:39:12;;;;;;;42.05;8.90;;;;;;;6.80;100.00;102695.97;5013205;28;20036;-64
2022/11/26 03:41:38;;;;;;;29.92;8.27;;;;;;;6.82;100.00;102695.97;5007909;28;20034;-64
2022/11/26 03:44:03;;;;;;;32.40;9.40;;;;;;;6.86;100.00;102697.78;5012683;28;20033;-59
2022/11/26 03:46:28;;;;;;;44.53;8.95;;;;;;;6.88;100.00;102705.66;5013770;28;20048;-62
2022/11/26 03:48:54;;;;;;;36.90;8.63;;;;;;;6.90;100.00;102706.56;4997383;28;20117;-63
2022/11/26 03:51:19;;;;;;;37.25;8.98;;;;;;;6.96;100.00;102719.75;5010008;28;20069;-61
2022/11/26 03:53:44;;;;;;;28.25;8.80;;;;;;;6.93;100.00;102714.47;5010780;28;20157;-59
2022/11/26 03:56:10;;;;;;;42.30;8.93;;;;;;;6.97;100.00;102716.25;5012099;28;20029;-64
2022/11/26 03:58:35;;;;;;;32.70;9.35;;;;;;;6.95;100.00;102721.47;5005803;28;20084;-62
2022/11/26 04:01:06;;;;;;;40.05;8.80;;;;;;;6.92;100.00;102726.69;5006093;28;20496;-65
2022/11/26 04:03:32;;;;;;;32.90;9.32;;;;;;;6.91;100.00;102711.81;5009751;28;20029;-59
2022/11/26 04:05:57;;;;;;;48.30;9.32;;;;;;;6.92;100.00;102707.44;5009802;28;20029;-62
2022/11/26 04:08:22;;;;;;;33.80;8.82;;;;;;;6.94;100.00;102713.59;5010345;28;20050;-60
2022/11/26 04:10:48;;;;;;;25.85;8.52;;;;;;;6.96;100.00;102711.88;5009507;28;20085;-63
2022/11/26 04:13:13;;;;;;;29.13;11.25;;;;;;;6.94;100.00;102711.88;5010160;28;20018;-64
2022/11/26 04:15:38;;;;;;;36.35;9.38;;;;;;;6.92;100.00;102718.81;5010296;28;20018;-59
2022/11/26 04:18:04;;;;;;;45.05;9.32;;;;;;;6.93;100.00;102714.47;5010498;28;20227;-64
2022/11/26 04:20:29;;;;;;;41.45;10.25;;;;;;;6.94;100.00;102709.25;5010790;28;20028;-63
2022/11/26 04:22:54;;;;;;;43.50;9.68;;;;;;;6.94;100.00;102716.22;5010424;28;20021;-62
2022/11/26 04:25:20;;;;;;;32.20;10.73;;;;;;;6.94;100.00;102719.72;5010603;28;20026;-62
2022/11/26 04:27:45;;;;;;;32.75;8.98;;;;;;;6.96;100.00;102717.13;5010298;28;20014;-63
2022/11/26 04:30:11;;;;;;;45.10;10.55;;;;;;;6.90;100.00;102720.56;5010477;28;20448;-60
2022/11/26 04:32:38;;;;;;;37.55;10.65;;;;;;;6.89;100.00;102721.41;5009904;28;20041;-56
2022/11/26 04:35:05;;;;;;;27.25;8.82;;;;;;;6.88;100.00;102721.38;5010270;28;20030;-62
2022/11/26 04:37:30;;;;;;;36.75;9.75;;;;;;;6.83;100.00;102716.06;5022786;28;20029;-62
2022/11/26 04:39:56;;;;;;;30.35;10.00;;;;;;;6.83;100.00;102716.06;5029363;28;20079;-60
2022/11/26 04:42:21;;;;;;;44.72;10.18;;;;;;;6.79;100.00;102717.78;5029215;28;20029;-62
2022/11/26 04:44:46;;;;;;;41.97;11.07;;;;;;;6.77;100.00;102727.38;5012115;28;20516;-62
2022/11/26 04:47:12;;;;;;;42.40;11.70;;;;;;;6.78;100.00;102728.25;5029834;28;20053;-62
2022/11/26 04:49:37;;;;;;;29.35;9.68;;;;;;;6.79;100.00;102730.91;5030293;28;20025;-62
2022/11/26 04:52:02;;;;;;;48.45;11.68;;;;;;;6.76;100.00;102727.34;5030012;28;20026;-62
2022/11/26 04:54:28;;;;;;;40.15;10.88;;;;;;;6.75;100.00;102736.06;5030233;28;20404;-63
2022/11/26 04:56:53;;;;;;;35.60;10.02;;;;;;;6.69;100.00;102734.25;5029777;28;20018;-64
2022/11/26 04:59:18;;;;;;;41.50;9.88;;;;;;;6.69;100.00;102736.88;5029102;28;20448;-62
2022/11/26 05:01:44;;;;;;;34.75;9.52;;;;;;;6.63;100.00;102737.69;5018782;28;20069;-62
2022/11/26 05:04:09;;;;;;;34.83;9.50;;;;;;;6.56;100.00;102739.31;4991542;28;20026;-64
2022/11/26 05:06:34;;;;;;;34.00;10.00;;;;;;;6.57;100.00;102738.47;5008461;28;20026;-64
2022/11/26 05:08:59;;;;;;;31.50;10.70;;;;;;;6.57;100.00;102738.47;5009617;28;20026;-63
2022/11/26 05:11:25;;;;;;;35.22;11.52;;;;;;;6.63;100.00;102744.66;5009855;28;20049;-63
2022/11/26 05:13:50;;;;;;;44.50;11.07;;;;;;;6.63;100.00;102747.28;5008822;28;20089;-64
2022/11/26 05:16:15;;;;;;;50.17;12.60;;;;;;;6.65;100.00;102746.44;5010339;28;20063;-63
2022/11/26 05:18:42;;;;;;;41.40;11.88;;;;;;;6.74;100.00;102744.81;5010142;28;20381;-65
2022/11/26 05:21:07;;;;;;;41.58;12.55;;;;;;;6.72;100.00;102747.41;5009628;28;20362;-62
2022/11/26 05:23:32;;;;;;;45.08;13.00;;;;;;;6.75;100.00;102742.22;5009905;28;20544;-64
2022/11/26 05:25:58;;;;;;;45.78;12.80;;;;;;;6.74;100.00;102748.28;4991532;28;20504;-63
2022/11/26 05:28:23;;;;;;;35.10;12.57;;;;;;;6.66;100.00;102748.22;5009198;28;20022;-57
2022/11/26 05:30:48;;;;;;;46.20;13.82;;;;;;;6.62;100.00;102758.63;5009179;28;20022;-61
2022/11/26 05:33:14;;;;;;;48.38;13.98;;;;;;;6.59;100.00;102764.69;5010273;28;20053;-63
2022/11/26 05:35:39;;;;;;;51.50;13.57;;;;;;;6.57;100.00;102762.03;5010104;28;20114;-63
2022/11/26 05:38:04;;;;;;;47.78;14.50;;;;;;;6.57;100.00;102766.41;5009656;28;20021;-58
2022/11/26 05:40:29;;;;;;;43.90;15.45;;;;;;;6.51;100.00;102769.84;5008888;28;20081;-56
2022/11/26 05:42:55;;;;;;;42.05;14.07;;;;;;;6.52;100.00;102766.34;5009377;28;20026;-62
2022/11/26 05:45:20;;;;;;;45.72;13.75;;;;;;;6.51;100.00;102767.22;5009340;28;20030;-64
2022/11/26 05:47:45;;;;;;;42.60;14.02;;;;;;;6.54;100.00;102769.84;5010325;28;20029;-64
2022/11/26 05:50:11;;;;;;;35.75;13.77;;;;;;;6.50;100.00;102772.44;5009775;28;20437;-64
2022/11/26 05:52:36;;;;;;;36.72;13.95;;;;;;;6.51;100.00;102771.56;5028343;28;20358;-63
2022/11/26 05:55:01;;;;;;;45.55;14.00;;;;;;;6.51;100.00;102767.22;5028069;28;20164;-62
2022/11/26 05:57:27;;;;;;;38.47;14.57;;;;;;;6.54;100.00;102769.84;5010001;28;20029;-61
2022/11/26 05:59:52;;;;;;;53.20;15.52;;;;;;;6.63;100.00;102768.22;5028373;28;20033;-64
2022/11/26 06:02:17;;;;;;;49.95;14.63;;;;;;;6.61;100.00;102772.56;5026502;28;20159;-60
2022/11/26 06:04:43;;;;;;;47.47;14.65;;;;;;;6.61;100.00;102776.06;5028965;28;20029;-63
2022/11/26 06:07:09;;;;;;;31.35;14.45;;;;;;;6.64;100.00;102778.72;5027901;28;20380;-60
2022/11/26 06:09:34;;;;;;;55.08;15.07;;;;;;;6.68;100.00;102777.00;5027572;28;20573;-64
2022/11/26 06:12:00;;;;;;;48.47;15.45;;;;;;;6.68;100.00;102771.78;5028352;28;20440;-61
2022/11/26 06:14:25;;;;;;;48.47;13.88;;;;;;;6.70;100.00;102768.34;5027911;28;20033;-59
2022/11/26 06:16:51;;;;;;;50.40;14.18;;;;;;;6.74;100.00;102779.72;5028416;28;20120;-63
2022/11/26 06:19:16;;;;;;;49.80;14.63;;;;;;;6.74;100.00;102771.88;5029324;28;20050;-63
2022/11/26 06:21:41;;;;;;;49.35;14.05;;;;;;;6.81;100.00;102781.56;5028391;28;20036;-64
2022/11/26 06:24:07;;;;;;;41.80;13.77;;;;;;;6.82;100.00;102775.50;5028585;28;20032;-59
2022/11/26 06:26:32;;;;;;;45.08;13.93;;;;;;;6.86;100.00;102775.53;5027705;28;20060;-62
2022/11/26 06:28:58;;;;;;;55.05;15.07;;;;;;;6.80;100.00;102782.44;5028129;28;20025;-63
2022/11/26 06:31:23;;;;;;;50.80;14.15;;;;;;;6.81;100.00;102778.94;5001440;28;20113;-63
2022/11/26 06:33:53;;;;;;;61.25;15.98;;;;;;;6.79;100.00;102772.81;5009244;28;20029;-63
2022/11/26 06:36:18;;;;;;;54.63;13.60;;;;;;;6.83;100.00;102779.84;5008859;28;20034;-62
2022/11/26 06:38:43;;;;;;;51.95;16.02;;;;;;;6.87;100.00;102783.41;5007177;28;20103;-62
2022/11/26 06:41:08;;;;;;;42.90;13.63;;;;;;;6.91;100.00;102785.19;5000033;28;20648;-62
2022/11/26 06:43:34;;;;;;;51.10;13.82;;;;;;;6.95;100.00;102792.25;4988322;28;20062;-63
2022/11/26 06:46:10;;;;;;;46.75;13.50;;;;;;;6.97;100.00;102789.63;4988475;28;20037;-62
2022/11/26 06:48:37;;;;;;;54.88;13.60;;;;;;;6.94;100.00;102786.97;4988638;28;20030;-65
2022/11/26 06:51:03;;;;;;;48.28;12.95;;;;;;;6.93;100.00;102790.47;4995778;28;20036;-61
2022/11/26 06:53:29;;;;;;;46.55;14.43;;;;;;;6.95;100.00;102796.59;5011783;28;20029;-65
2022/11/26 06:55:58;;;;;;;39.85;13.15;;;;;;;6.98;100.00;102801.88;5027383;28;20407;-63
2022/11/26 06:58:23;;;;;;;45.05;13.82;;;;;;;6.96;100.00;102803.63;5004952;28;20108;-64
2022/11/26 07:00:49;;;;;;;56.83;15.02;;;;;;;7.02;100.00;102808.94;4996213;28;20183;-63
2022/11/26 07:03:14;;;;;;;49.03;13.45;;;;;;;7.02;100.00;102808.94;4999719;28;20401;-62
2022/11/26 07:05:39;;;;;;;39.20;12.95;;;;;;;7.05;100.00;102808.94;5020155;28;20033;-63
2022/11/26 07:08:05;;;;;;;48.42;13.15;;;;;;;7.06;100.00;102809.84;5006317;28;20022;-63
2022/11/26 07:10:30;;;;;;;41.67;13.25;;;;;;;7.06;100.00;102826.47;5005641;28;20030;-63
2022/11/26 07:12:55;;;;;;;46.38;13.38;;;;;;;7.05;100.00;102818.56;5003903;28;20022;-63
2022/11/26 07:15:21;;;;;;;43.97;14.57;;;;;;;7.08;100.00;102824.72;5010783;28;20025;-62
2022/11/26 07:17:46;;;;;;;45.83;12.88;;;;;;;7.10;100.00;102826.50;5017853;28;20037;-64
2022/11/26 07:20:13;;;;;;;48.78;13.10;;;;;;;7.09;100.00;102825.63;5022850;28;20053;-61
2022/11/26 07:22:38;;;;;;;40.42;12.52;;;;;;;7.13;100.00;102822.16;5024933;28;20030;-63
2022/11/26 07:25:04;;;;;;;42.60;13.50;;;;;;;7.16;100.00;102823.94;5025381;28;20078;-59
2022/11/26 07:27:29;;;;;;;42.85;12.02;;;;;;;7.19;100.00;102826.59;5025116;28;20030;-64
2022/11/26 07:29:54;;;;;;;48.08;12.40;;;;;;;7.15;100.00;102823.06;5026341;28;20025;-60
2022/11/26 07:32:19;;;;;;;44.45;12.68;;;;;;;7.17;100.00;102823.09;5025568;28;20508;-65
2022/11/26 07:34:45;;;;;;;41.75;13.32;;;;;;;7.20;100.00;102833.63;5026877;28;20036;-61
2022/11/26 07:37:10;;;;;;;41.80;12.70;;;;;;;7.19;100.00;102832.72;5026419;28;20029;-63
2022/11/26 07:39:36;;;;;;;47.65;12.98;;;;;;;7.24;100.00;102832.78;5019097;28;20451;-64
2022/11/26 07:42:01;;;;;;;39.97;12.43;;;;;;;7.27;100.00;102834.56;5010269;28;20465;-64
2022/11/26 07:44:26;;;;;;;45.53;12.75;;;;;;;7.27;100.00;102838.09;5008706;28;20033;-63
2022/11/26 07:46:52;;;;;;;36.70;12.23;;;;;;;7.29;100.00;102836.34;4989859;28;20018;-62
2022/11/26 07:49:17;;;;;;;39.90;12.15;;;;;;;7.37;100.00;102843.44;5001365;28;20123;-59
2022/11/26 07:51:42;;;;;;;38.03;11.07;;;;;;;7.40;100.00;102840.81;4998006;28;20028;-63
2022/11/26 07:54:08;;;;;;;39.40;13.05;;;;;;;7.40;100.00;102840.81;4989962;28;20066;-60
2022/11/26 07:56:34;;;;;;;38.95;12.52;;;;;;;7.42;100.00;102841.75;4990817;28;20090;-62
2022/11/26 07:59:00;;;;;;;44.13;11.93;;;;;;;7.48;100.00;102844.44;4998118;28;20022;-66
2022/11/26 08:01:27;;;;;;;49.95;12.52;;;;;;;7.50;100.00;102847.06;5014702;28;20773;-64
2022/11/26 08:03:52;;;;;;;46.63;12.05;;;;;;;7.49;100.00;102846.19;5011246;28;20036;-64
2022/11/26 08:06:20;;;;;;;44.78;12.27;;;;;;;7.51;100.00;102844.47;5009576;28;20113;-58
2022/11/26 08:08:46;;;;;;;49.13;12.95;;;;;;;7.62;100.00;102841.97;4994102;28;20039;-65
2022/11/26 08:11:15;;;;;;;38.55;11.70;;;;;;;7.63;100.00;102838.47;4990549;28;20145;-65
2022/11/26 08:13:41;;;;;;;42.33;12.13;;;;;;;7.65;100.00;102847.22;4989503;28;20392;-64
2022/11/26 08:16:07;;;;;;;45.17;12.30;;;;;;;7.66;100.00;102845.50;4989066;28;20026;-66
2022/11/26 08:18:32;;;;;;;36.78;11.02;;;;;;;7.72;100.00;102845.56;4990331;28;20029;-60
2022/11/26 08:20:57;;;;;;;41.42;10.82;;;;;;;7.79;100.00;102847.38;4990274;28;20026;-63
2022/11/26 08:23:24;;;;;;;47.78;12.23;;;;;;;7.86;100.00;102850.09;5000239;28;20057;-64
2022/11/26 08:25:50;;;;;;;42.47;11.23;;;;;;;7.87;100.00;102843.94;5005068;28;20033;-66
2022/11/26 08:28:16;;;;;;;43.45;11.02;;;;;;;7.91;100.00;102851.88;5014283;28;20774;-66
2022/11/26 08:30:41;;;;;;;36.78;13.23;;;;;;;7.91;100.00;102843.13;5008975;28;20026;-62
2022/11/26 08:33:07;;;;;;;35.17;10.73;;;;;;;8.01;100.00;102849.34;5009073;28;20036;-63
2022/11/26 08:35:34;;;;;;;34.65;11.65;;;;;;;8.04;100.00;102852.00;4998599;28;20104;-63
2022/11/26 08:37:59;;;;;;;38.65;10.68;;;;;;;8.09;100.00;102845.94;4995647;28;20473;-64
2022/11/26 08:40:24;;;;;;;42.13;11.50;;;;;;;8.11;100.00;102850.31;4997305;28;20053;-65
2022/11/26 08:42:50;;;;;;;41.78;11.20;;;;;;;8.07;100.00;102852.91;4999075;28;20159;-58
2022/11/26 08:45:15;;;;;;;35.20;11.55;;;;;;;8.16;100.00;102848.59;4996161;28;20508;-65
2022/11/26 08:47:40;;;;;;;40.13;11.93;;;;;;;8.19;100.00;102854.75;4992586;28;20177;-63
2022/11/26 08:50:06;;;;;;;38.13;10.73;;;;;;;8.21;100.00;102862.66;4993072;28;20042;-62
2022/11/26 08:52:32;;;;;;;28.08;10.02;;;;;;;8.24;100.00;102862.66;4997621;28;20041;-59
2022/11/26 08:54:57;;;;;;;36.30;10.70;;;;;;;8.26;100.00;102858.31;4994154;28;20326;-65
2022/11/26 08:57:22;;;;;;;42.58;11.18;;;;;;;8.22;100.00;102859.16;5003303;28;20054;-64
2022/11/26 08:59:49;;;;;;;33.83;10.07;;;;;;;8.22;100.00;102867.06;4998614;28;20149;-63
2022/11/26 09:02:14;;;;;;;39.67;11.38;;;;;;;8.25;100.00;102866.19;5002568;28;20038;-64
2022/11/26 09:04:40;;;;;;;37.83;11.52;;;;;;;8.19;100.00;102869.66;4996804;28;20378;-61
2022/11/26 09:07:05;;;;;;;30.02;11.20;;;;;;;8.25;100.00;102866.19;5000456;28;20049;-63
2022/11/26 09:09:31;;;;;;;39.03;11.45;;;;;;;8.25;100.00;102867.06;4992821;28;20481;-62
2022/11/26 09:11:58;;;;;;;43.90;11.10;;;;;;;8.26;100.00;102873.19;5001704;28;20038;-63
2022/11/26 09:14:25;;;;;;;46.70;10.48;;;;;;;8.39;100.00;102876.78;4989959;28;20103;-62
2022/11/26 09:16:53;;;;;;;35.40;11.38;;;;;;;8.39;100.00;102882.94;4996966;28;20149;-62
2022/11/26 09:19:18;;;;;;;48.35;10.95;;;;;;;8.48;100.00;102884.75;4996935;28;20026;-64
2022/11/26 09:21:44;;;;;;;38.03;10.77;;;;;;;8.52;100.00;102870.75;5001496;28;20040;-61
2022/11/26 09:24:10;;;;;;;39.53;10.98;;;;;;;8.55;100.00;102867.34;4999381;28;20030;-62
2022/11/26 09:26:36;;;;;;;41.05;11.48;;;;;;;8.58;100.00;102876.09;4997009;28;20053;-61
2022/11/26 09:29:02;;;;;;;43.22;12.68;;;;;;;8.56;100.00;102876.97;4992567;28;20018;-64
2022/11/26 09:31:27;;;;;;;34.85;11.60;;;;;;;8.68;100.00;102860.41;4988971;28;20242;-61
2022/11/26 09:33:57;;;;;;;40.80;11.32;;;;;;;8.70;100.00;102863.94;4990663;28;20537;-64
2022/11/26 09:36:23;;;;;;;34.20;10.43;;;;;;;8.65;100.00;102873.53;4969052;28;20029;-57
2022/11/26 09:38:48;;;;;;;38.20;11.55;;;;;;;8.76;100.00;102877.09;5000955;28;20026;-64
2022/11/26 09:41:46;;;;;;;38.63;11.43;;;;;;;8.72;100.00;102872.69;5001237;28;20050;-66
2022/11/26 09:45:04;;;;;;;26.25;10.45;;;;;;;8.83;100.00;102876.28;4987418;28;20033;-65
2022/11/26 09:47:37;;;;;;;36.33;10.57;;;;;;;8.73;100.00;102882.34;4974833;28;20034;-63
2022/11/26 09:50:24;;;;;;;37.53;10.77;;;;;;;8.82;100.00;102886.81;4995987;28;20021;-64
2022/11/26 09:53:00;;;;;;;41.47;11.18;;;;;;;8.87;100.00;102889.44;5004205;28;20033;-65
2022/11/26 09:55:30;;;;;;;34.42;10.52;;;;;;;8.83;100.00;102888.56;5004285;28;20038;-64
2022/11/26 09:58:11;;;;;;;35.80;10.73;;;;;;;8.91;100.00;102892.09;4998499;28;20030;-64
2022/11/26 10:00:44;;;;;;;35.72;10.50;;;;;;;8.94;100.00;102880.75;4997535;28;20084;-65
2022/11/26 10:03:23;;;;;;;35.63;10.02;;;;;;;8.92;100.00;102882.47;5002315;28;20060;-62
2022/11/26 10:05:57;;;;;;;41.50;10.20;;;;;;;8.93;100.00;102873.69;5007856;28;20437;-65
2022/11/26 10:08:38;;;;;;;37.42;10.13;;;;;;;8.97;100.00;102875.47;4985417;28;20104;-63
2022/11/26 10:11:32;;;;;;;34.50;9.73;;;;;;;9.01;100.00;102874.63;4997691;28;20042;-63
2022/11/26 10:14:17;;;;;;;25.52;9.57;;;;;;;9.06;100.00;102875.53;4986088;28;20472;-65
2022/11/26 10:16:55;;;;;;;37.72;9.70;;;;;;;9.20;100.00;102878.25;4989126;28;20026;-64
2022/11/26 10:19:39;;;;;;;35.88;9.60;;;;;;;9.32;100.00;102877.41;5004326;28;20022;-63
2022/11/26 10:22:14;;;;;;;29.23;8.10;;;;;;;9.37;100.00;102880.06;4998228;28;20452;-64
2022/11/26 10:24:40;;;;;;;32.72;8.30;;;;;;;9.49;100.00;102879.22;4986803;28;20080;-64
2022/11/26 10:27:14;;;;;;;35.28;9.32;;;;;;;9.68;100.00;102884.53;4985485;28;20113;-61
2022/11/26 10:29:42;;;;;;;28.10;8.95;;;;;;;9.83;100.00;102879.31;4995971;28;20041;-63
2022/11/26 10:32:16;;;;;;;25.10;8.23;;;;;;;9.95;100.00;102883.75;4997494;28;20361;-63
2022/11/26 10:34:55;;;;;;;29.13;9.52;;;;;;;9.93;100.00;102885.47;4997183;28;20125;-64
2022/11/26 10:37:22;;;;;;;29.38;8.35;;;;;;;10.16;100.00;102883.75;4997974;28;20052;-63
2022/11/26 10:39:48;;;;;;;30.60;8.50;;;;;;;10.29;100.00;102882.88;4995422;28;20025;-63
2022/11/26 10:42:19;;;;;;;30.30;8.55;;;;;;;10.31;100.00;102865.31;4988645;28;20038;-59
2022/11/26 10:44:46;;;;;;;37.35;9.05;;;;;;;10.46;100.00;102872.38;4993730;28;20405;-64
2022/11/26 10:47:22;;;;;;;29.75;7.53;;;;;;;10.59;100.00;102859.16;4997399;28;20022;-64
2022/11/26 10:49:48;;;;;;;27.05;7.57;;;;;;;10.77;100.00;102857.41;4999879;28;20084;-63
2022/11/26 10:52:21;;;;;;;27.50;7.45;;;;;;;10.82;100.00;102861.78;4985487;28;20053;-61
2022/11/26 10:55:06;;;;;;;22.42;6.93;;;;;;;11.00;100.00;102859.97;4996666;28;20053;-64
2022/11/26 10:57:32;;;;;;;28.45;7.72;;;;;;;11.05;100.00;102857.31;4986570;28;20137;-61
2022/11/26 10:59:58;;;;;;;22.27;7.53;;;;;;;11.18;100.00;102863.41;4985969;28;20031;-61
2022/11/26 11:02:39;;;;;;;29.15;8.32;;;;;;;11.26;100.00;102861.63;4986998;28;20042;-62
2022/11/26 11:05:07;;;;;;;29.90;7.53;;;;;;;11.37;100.00;102872.13;4985474;28;20034;-65
2022/11/26 11:07:32;;;;;;;26.02;6.75;;;;;;;11.41;100.00;102876.50;5009094;28;20052;-65
2022/11/26 11:10:05;;;;;;;31.75;7.45;;;;;;;11.34;100.00;102872.13;5007245;28;20060;-61
2022/11/26 11:12:31;;;;;;;27.58;7.35;;;;;;;11.48;100.00;102872.09;5003151;28;20049;-63
2022/11/26 11:15:18;;;;;;;27.92;7.15;;;;;;;11.46;100.00;102868.56;5007072;28;20034;-62